createdAt,value
2023-05-20T00:00:16.167Z,16.70
2023-05-20T00:01:19.553Z,16.78
2023-05-20T00:02:22.903Z,16.79
2023-05-20T00:03:25.577Z,16.84
2023-05-20T00:04:30.783Z,16.74
2023-05-20T00:05:33.897Z,16.77
2023-05-20T00:06:37.167Z,16.78
2023-05-20T00:07:43.823Z,16.76
2023-05-20T00:08:47.241Z,16.84
2023-05-20T00:09:55.183Z,16.83
2023-05-20T00:10:59.988Z,16.84
2023-05-20T00:12:04.127Z,16.79
2023-05-20T00:13:07.763Z,16.86
2023-05-20T00:14:10.724Z,16.80
2023-05-20T00:15:17.044Z,16.67
2023-05-20T00:16:23.440Z,16.64
2023-05-20T00:17:30.400Z,16.61
2023-05-20T00:18:34.027Z,16.53
2023-05-20T00:19:37.117Z,16.67
2023-05-20T00:20:39.889Z,16.69
2023-05-20T00:21:44.630Z,16.69
2023-05-20T00:22:48.144Z,16.58
2023-05-20T00:23:51.597Z,16.49
2023-05-20T00:24:54.546Z,16.58
2023-05-20T00:26:00.455Z,16.52
2023-05-20T00:27:03.531Z,16.48
2023-05-20T00:28:07.448Z,16.51
2023-05-20T00:29:11.940Z,16.57
2023-05-20T00:30:14.401Z,16.61
2023-05-20T00:31:18.176Z,16.57
2023-05-20T00:32:20.756Z,16.56
2023-05-20T00:33:25.293Z,16.57
2023-05-20T00:34:28.699Z,16.71
2023-05-20T00:35:31.663Z,16.68
2023-05-20T00:36:35.068Z,16.67
2023-05-20T00:37:39.310Z,16.68
2023-05-20T00:38:43.801Z,16.72
2023-05-20T00:39:47.989Z,16.74
2023-05-20T00:40:51.726Z,16.70
2023-05-20T00:41:54.004Z,16.68
2023-05-20T00:42:57.567Z,16.73
2023-05-20T00:44:00.596Z,16.79
2023-05-20T00:45:04.362Z,16.85
2023-05-20T00:46:12.366Z,16.80
2023-05-20T00:47:17.851Z,16.80
2023-05-20T00:48:22.619Z,16.85
2023-05-20T00:49:26.009Z,16.93
2023-05-20T00:50:29.409Z,16.88
2023-05-20T00:51:33.226Z,16.87
2023-05-20T00:52:37.486Z,16.92
2023-05-20T00:53:43.380Z,16.88
2023-05-20T00:54:47.410Z,16.81
2023-05-20T00:55:51.110Z,16.73
2023-05-20T00:56:55.676Z,16.75
2023-05-20T00:57:59.488Z,16.77
2023-05-20T00:59:03.400Z,16.81
2023-05-20T01:00:08.627Z,16.86
2023-05-20T01:01:12.114Z,16.88
2023-05-20T01:02:14.600Z,16.95
2023-05-20T01:03:17.597Z,16.80
2023-05-20T01:04:22.282Z,16.80
2023-05-20T01:05:26.424Z,16.88
2023-05-20T01:06:30.084Z,16.87
2023-05-20T01:07:32.697Z,16.88
2023-05-20T01:08:36.404Z,16.96
2023-05-20T01:09:43.251Z,16.96
2023-05-20T01:10:49.020Z,16.93
2023-05-20T01:11:54.464Z,16.91
2023-05-20T01:12:58.929Z,16.95
2023-05-20T01:14:03.435Z,16.94
2023-05-20T01:15:08.670Z,16.85
2023-05-20T01:16:13.859Z,16.82
2023-05-20T01:17:19.377Z,16.81
2023-05-20T01:18:27.399Z,16.85
2023-05-20T01:19:39.032Z,16.85
2023-05-20T01:20:42.531Z,17.03
2023-05-20T01:21:46.584Z,16.96
2023-05-20T01:22:51.313Z,16.88
2023-05-20T01:23:54.654Z,16.96
2023-05-20T01:24:58.111Z,17.04
2023-05-20T01:26:03.279Z,17.09
2023-05-20T01:27:08.375Z,17.10
2023-05-20T01:28:14.160Z,17.17
2023-05-20T01:29:19.233Z,17.11
2023-05-20T01:30:23.374Z,16.97
2023-05-20T01:31:28.782Z,16.96
2023-05-20T01:32:41.369Z,16.84
2023-05-20T01:33:48.414Z,16.80
2023-05-20T01:34:53.658Z,16.83
2023-05-20T01:35:59.120Z,16.80
2023-05-20T01:37:04.556Z,16.85
2023-05-20T01:38:07.239Z,16.79
2023-05-20T01:39:12.198Z,16.80
2023-05-20T01:40:16.727Z,16.86
2023-05-20T01:41:20.506Z,16.90
2023-05-20T01:42:27.823Z,16.68
2023-05-20T01:43:31.622Z,16.68
2023-05-20T01:44:36.784Z,16.64
2023-05-20T01:45:42.114Z,16.59
2023-05-20T01:46:54.436Z,16.61
2023-05-20T01:47:58.747Z,16.73
2023-05-20T01:49:04.214Z,16.69
2023-05-20T01:50:08.903Z,16.60
2023-05-20T01:51:12.618Z,16.56
2023-05-20T01:52:16.681Z,16.53
2023-05-20T01:53:24.619Z,16.54
2023-05-20T01:54:28.109Z,16.56
2023-05-20T01:55:31.246Z,16.59
2023-05-20T01:56:34.501Z,16.62
2023-05-20T01:57:39.007Z,16.74
2023-05-20T01:58:42.442Z,16.71
2023-05-20T01:59:48.043Z,16.68
2023-05-20T02:00:50.650Z,16.59
2023-05-20T02:01:56.429Z,16.59
2023-05-20T02:02:59.945Z,16.62
2023-05-20T02:04:03.523Z,16.63
2023-05-20T02:05:06.814Z,16.62
2023-05-20T02:06:11.623Z,16.66
2023-05-20T02:07:20.806Z,16.60
2023-05-20T02:08:23.693Z,16.49
2023-05-20T02:09:27.460Z,16.60
2023-05-20T02:10:30.401Z,16.65
2023-05-20T02:11:34.800Z,16.74
2023-05-20T02:12:38.454Z,16.63
2023-05-20T02:13:45.187Z,16.63
2023-05-20T02:14:48.896Z,16.70
2023-05-20T02:15:51.839Z,16.79
2023-05-20T02:18:09.400Z,16.83
2023-05-20T02:19:13.309Z,16.75
2023-05-20T02:20:16.487Z,16.55
2023-05-20T02:21:21.129Z,16.57
2023-05-20T02:22:25.458Z,16.64
2023-05-20T02:23:29.680Z,16.61
2023-05-20T02:24:35.185Z,16.67
2023-05-20T02:25:38.382Z,16.77
2023-05-20T02:26:43.229Z,16.76
2023-05-20T02:27:46.848Z,16.71
2023-05-20T02:28:52.332Z,16.61
2023-05-20T02:29:58.353Z,16.61
2023-05-20T02:31:01.387Z,16.65
2023-05-20T02:32:07.869Z,16.72
2023-05-20T02:33:11.973Z,16.60
2023-05-20T02:34:16.810Z,16.67
2023-05-20T02:35:22.245Z,16.58
2023-05-20T02:36:25.783Z,16.65
2023-05-20T02:37:29.119Z,16.82
2023-05-20T02:38:33.181Z,16.72
2023-05-20T02:39:36.673Z,16.75
2023-05-20T02:40:40.086Z,16.74
2023-05-20T02:41:44.762Z,16.68
2023-05-20T02:42:49.670Z,16.77
2023-05-20T02:43:54.149Z,16.71
2023-05-20T02:44:59.728Z,16.64
2023-05-20T02:46:06.336Z,16.70
2023-05-20T02:47:09.992Z,16.56
2023-05-20T02:48:13.561Z,16.60
2023-05-20T02:49:18.571Z,16.72
2023-05-20T02:50:24.349Z,16.77
2023-05-20T02:51:27.462Z,16.77
2023-05-20T02:52:31.306Z,16.60
2023-05-20T02:53:35.858Z,16.49
2023-05-20T02:54:39.541Z,16.67
2023-05-20T02:55:43.148Z,16.60
2023-05-20T02:56:46.655Z,16.74
2023-05-20T02:57:49.953Z,16.80
2023-05-20T02:58:53.654Z,16.81
2023-05-20T02:59:57.789Z,16.82
2023-05-20T03:01:03.107Z,16.82
2023-05-20T03:02:09.043Z,16.75
2023-05-20T03:03:13.231Z,16.79
2023-05-20T03:04:16.821Z,16.84
2023-05-20T03:05:20.645Z,16.93
2023-05-20T03:06:23.428Z,16.94
2023-05-20T03:07:27.036Z,17.04
2023-05-20T03:08:30.558Z,17.14
2023-05-20T03:09:34.557Z,16.99
2023-05-20T03:10:37.490Z,16.79
2023-05-20T03:11:42.548Z,16.91
2023-05-20T03:12:46.015Z,16.89
2023-05-20T03:13:48.788Z,17.09
2023-05-20T03:14:55.365Z,17.03
2023-05-20T03:15:58.883Z,17.16
2023-05-20T03:17:02.807Z,17.01
2023-05-20T03:18:07.600Z,17.09
2023-05-20T03:19:11.958Z,17.21
2023-05-20T03:20:17.442Z,17.21
2023-05-20T03:21:21.155Z,17.04
2023-05-20T03:22:25.037Z,17.00
2023-05-20T03:23:31.811Z,17.10
2023-05-20T03:24:39.916Z,17.18
2023-05-20T03:25:43.846Z,17.15
2023-05-20T03:26:49.879Z,17.16
2023-05-20T03:27:53.667Z,17.28
2023-05-20T03:29:00.191Z,17.55
2023-05-20T03:30:04.339Z,17.39
2023-05-20T03:31:08.277Z,17.42
2023-05-20T03:32:11.973Z,17.64
2023-05-20T03:33:16.118Z,17.90
2023-05-20T03:34:18.984Z,17.73
2023-05-20T03:35:23.013Z,17.61
2023-05-20T03:36:26.819Z,17.72
2023-05-20T03:37:31.696Z,17.73
2023-05-20T03:38:35.509Z,17.46
2023-05-20T03:39:39.757Z,17.42
2023-05-20T03:40:43.144Z,17.45
2023-05-20T03:41:46.970Z,17.47
2023-05-20T03:42:52.406Z,17.51
2023-05-20T03:43:56.985Z,17.38
2023-05-20T03:45:00.676Z,17.40
2023-05-20T03:46:06.216Z,17.38
2023-05-20T03:47:10.819Z,17.46
2023-05-20T03:48:17.932Z,17.41
2023-05-20T03:49:21.004Z,17.48
2023-05-20T03:50:24.423Z,17.23
2023-05-20T03:51:28.333Z,17.24
2023-05-20T03:52:35.282Z,17.37
2023-05-20T03:53:42.514Z,17.17
2023-05-20T03:54:47.455Z,17.11
2023-05-20T03:55:52.071Z,17.25
2023-05-20T03:56:58.449Z,17.25
2023-05-20T03:58:03.169Z,17.25
2023-05-20T03:59:06.768Z,17.26
2023-05-20T04:00:12.685Z,17.21
2023-05-20T04:01:18.847Z,17.04
2023-05-20T04:02:23.609Z,16.85
2023-05-20T04:03:30.330Z,16.80
2023-05-20T04:04:34.193Z,17.04
2023-05-20T04:05:37.932Z,17.19
2023-05-20T04:06:45.186Z,17.37
2023-05-20T04:07:49.108Z,17.42
2023-05-20T04:08:53.764Z,17.20
2023-05-20T04:09:56.962Z,17.46
2023-05-20T04:11:00.305Z,17.44
2023-05-20T04:12:04.322Z,17.40
2023-05-20T04:13:07.976Z,17.28
2023-05-20T04:14:13.074Z,17.55
2023-05-20T04:15:17.747Z,17.59
2023-05-20T04:16:30.166Z,17.42
2023-05-20T04:17:33.391Z,17.51
2023-05-20T04:18:40.281Z,17.75
2023-05-20T04:19:45.833Z,18.30
2023-05-20T04:20:49.646Z,19.27
2023-05-20T04:21:52.543Z,20.24
2023-05-20T04:22:57.185Z,20.93
2023-05-20T04:24:00.677Z,21.83
2023-05-20T04:25:06.720Z,22.29
2023-05-20T04:26:10.195Z,22.66
2023-05-20T04:27:14.126Z,23.23
2023-05-20T04:28:20.755Z,23.32
2023-05-20T04:29:24.689Z,24.02
2023-05-20T04:30:28.086Z,24.52
2023-05-20T04:31:32.884Z,25.40
2023-05-20T04:32:36.699Z,25.53
2023-05-20T04:33:40.172Z,25.30
2023-05-20T04:34:44.815Z,25.19
2023-05-20T04:35:48.433Z,24.81
2023-05-20T04:36:55.679Z,24.82
2023-05-20T04:37:58.881Z,24.83
2023-05-20T04:39:02.012Z,25.05
2023-05-20T04:40:11.113Z,24.47
2023-05-20T04:41:16.729Z,24.73
2023-05-20T04:42:22.461Z,25.62
2023-05-20T04:43:27.973Z,25.96
2023-05-20T04:44:31.504Z,25.96
2023-05-20T04:45:36.992Z,25.98
2023-05-20T04:46:40.682Z,25.49
2023-05-20T04:47:43.753Z,26.63
2023-05-20T04:48:50.003Z,27.34
2023-05-20T04:49:56.780Z,27.57
2023-05-20T04:51:00.794Z,27.23
2023-05-20T04:52:07.537Z,27.46
2023-05-20T04:53:10.718Z,27.34
2023-05-20T04:54:14.964Z,27.06
2023-05-20T04:55:21.863Z,27.19
2023-05-20T04:56:27.833Z,27.21
2023-05-20T04:57:32.058Z,27.58
2023-05-20T04:58:36.092Z,27.15
2023-05-20T04:59:38.546Z,27.74
2023-05-20T05:00:44.141Z,27.19
2023-05-20T05:01:47.705Z,27.47
2023-05-20T05:02:51.271Z,27.85
2023-05-20T05:03:56.129Z,28.12
2023-05-20T05:05:00.063Z,28.25
2023-05-20T05:06:03.650Z,27.93
2023-05-20T05:07:07.158Z,28.10
2023-05-20T05:08:12.684Z,29.09
2023-05-20T05:09:20.272Z,29.49
2023-05-20T05:10:29.161Z,29.49
2023-05-20T05:11:32.774Z,28.61
2023-05-20T05:12:37.003Z,28.75
2023-05-20T05:13:40.948Z,28.64
2023-05-20T05:14:43.391Z,28.73
2023-05-20T05:15:46.397Z,28.94
2023-05-20T05:16:54.082Z,29.09
2023-05-20T05:17:57.910Z,29.32
2023-05-20T05:19:03.638Z,29.74
2023-05-20T05:20:09.948Z,30.12
2023-05-20T05:21:13.631Z,29.97
2023-05-20T05:22:21.320Z,30.05
2023-05-20T05:23:26.582Z,29.98
2023-05-20T05:24:30.815Z,29.85
2023-05-20T05:25:34.600Z,29.64
2023-05-20T05:26:38.248Z,29.36
2023-05-20T05:27:41.848Z,28.38
2023-05-20T05:28:46.088Z,27.73
2023-05-20T05:29:49.900Z,28.20
2023-05-20T05:30:58.474Z,28.89
2023-05-20T05:32:02.482Z,29.37
2023-05-20T05:33:08.913Z,30.04
2023-05-20T05:34:12.590Z,30.68
2023-05-20T05:35:16.103Z,30.63
2023-05-20T05:36:19.704Z,30.58
2023-05-20T05:37:23.166Z,29.99
2023-05-20T05:38:27.773Z,30.21
2023-05-20T05:39:31.476Z,30.78
2023-05-20T05:40:35.296Z,31.45
2023-05-20T05:41:39.735Z,31.22
2023-05-20T05:42:43.973Z,31.19
2023-05-20T05:43:46.648Z,31.16
2023-05-20T05:44:50.798Z,29.95
2023-05-20T05:45:54.801Z,29.89
2023-05-20T05:46:58.444Z,29.90
2023-05-20T05:48:03.320Z,30.13
2023-05-20T05:49:08.552Z,29.82
2023-05-20T05:50:13.773Z,29.51
2023-05-20T05:51:17.630Z,29.60
2023-05-20T05:52:22.461Z,29.45
2023-05-20T05:53:25.537Z,29.38
2023-05-20T05:54:29.143Z,29.58
2023-05-20T05:55:35.270Z,30.66
2023-05-20T05:56:39.352Z,31.04
2023-05-20T05:57:43.790Z,30.50
2023-05-20T05:58:49.073Z,30.83
2023-05-20T05:59:57.233Z,31.40
2023-05-20T06:01:01.226Z,31.36
2023-05-20T06:02:04.684Z,30.97
2023-05-20T06:03:07.257Z,31.34
2023-05-20T06:04:11.946Z,30.90
2023-05-20T06:05:15.557Z,30.46
2023-05-20T06:06:19.153Z,30.34
2023-05-20T06:07:26.587Z,30.16
2023-05-20T06:08:31.273Z,30.04
2023-05-20T06:09:36.353Z,31.06
2023-05-20T06:10:41.339Z,31.78
2023-05-20T06:11:47.229Z,31.57
2023-05-20T06:12:53.357Z,31.31
2023-05-20T06:13:56.847Z,31.09
2023-05-20T06:15:01.580Z,30.95
2023-05-20T06:16:06.044Z,31.43
2023-05-20T06:17:09.654Z,31.12
2023-05-20T06:18:13.615Z,30.97
2023-05-20T06:19:16.114Z,31.19
2023-05-20T06:20:20.082Z,31.62
2023-05-20T06:21:24.919Z,31.58
2023-05-20T06:22:28.339Z,31.05
2023-05-20T06:23:31.254Z,31.38
2023-05-20T06:24:35.987Z,31.92
2023-05-20T06:25:39.769Z,31.89
2023-05-20T06:26:43.180Z,30.24
2023-05-20T06:27:50.142Z,30.62
2023-05-20T06:28:55.459Z,31.05
2023-05-20T06:29:58.089Z,31.44
2023-05-20T06:31:01.448Z,32.50
2023-05-20T06:32:07.059Z,31.88
2023-05-20T06:33:10.167Z,30.99
2023-05-20T06:34:14.604Z,30.87
2023-05-20T06:35:18.109Z,31.50
2023-05-20T06:36:22.580Z,31.39
2023-05-20T06:37:26.018Z,31.85
2023-05-20T06:38:31.717Z,30.70
2023-05-20T06:39:40.284Z,30.72
2023-05-20T06:40:46.399Z,30.94
2023-05-20T06:41:51.270Z,31.19
2023-05-20T06:42:56.865Z,31.14
2023-05-20T06:44:02.059Z,31.60
2023-05-20T06:45:07.774Z,31.79
2023-05-20T06:46:13.394Z,32.70
2023-05-20T06:47:21.023Z,33.54
2023-05-20T06:48:26.278Z,33.52
2023-05-20T06:49:28.961Z,33.48
2023-05-20T06:50:33.954Z,33.28
2023-05-20T06:51:38.519Z,33.01
2023-05-20T06:52:41.252Z,33.51
2023-05-20T06:53:44.880Z,32.58
2023-05-20T06:54:48.788Z,32.50
2023-05-20T06:55:53.956Z,32.60
2023-05-20T06:56:57.410Z,31.92
2023-05-20T06:57:59.970Z,32.64
2023-05-20T06:59:05.508Z,32.40
2023-05-20T07:00:11.163Z,32.76
2023-05-20T07:01:18.115Z,31.75
2023-05-20T07:02:23.060Z,32.49
2023-05-20T07:03:26.781Z,33.11
2023-05-20T07:04:30.766Z,33.40
2023-05-20T07:05:35.129Z,32.94
2023-05-20T07:06:38.802Z,32.73
2023-05-20T07:07:42.148Z,32.30
2023-05-20T07:08:46.363Z,31.76
2023-05-20T07:09:50.387Z,32.07
2023-05-20T07:10:55.581Z,32.57
2023-05-20T07:11:58.328Z,32.46
2023-05-20T07:13:01.933Z,32.00
2023-05-20T07:14:07.493Z,31.85
2023-05-20T07:15:12.467Z,31.73
2023-05-20T07:16:17.200Z,32.32
2023-05-20T07:17:22.833Z,31.86
2023-05-20T07:18:28.458Z,31.88
2023-05-20T07:19:34.331Z,31.73
2023-05-20T07:20:37.864Z,32.24
2023-05-20T07:21:44.291Z,32.19
2023-05-20T07:22:52.306Z,32.03
2023-05-20T07:24:00.293Z,31.48
2023-05-20T07:25:03.792Z,32.47
2023-05-20T07:26:07.735Z,31.64
2023-05-20T07:27:13.198Z,32.61
2023-05-20T07:28:17.752Z,32.47
2023-05-20T07:29:21.571Z,32.53
2023-05-20T07:30:24.986Z,32.29
2023-05-20T07:31:34.456Z,33.27
2023-05-20T07:32:37.635Z,33.24
2023-05-20T07:33:45.727Z,32.31
2023-05-20T07:36:02.025Z,30.20
2023-05-20T07:37:07.754Z,30.62
2023-05-20T07:38:12.392Z,31.23
2023-05-20T07:39:16.170Z,30.71
2023-05-20T07:40:22.709Z,30.50
2023-05-20T07:41:28.078Z,30.85
2023-05-20T07:42:32.040Z,30.98
2023-05-20T07:43:37.941Z,30.98
2023-05-20T07:44:47.323Z,30.98
2023-05-20T07:45:52.764Z,31.36
2023-05-20T07:46:56.449Z,31.78
2023-05-20T07:48:03.321Z,30.55
2023-05-20T07:49:06.110Z,29.93
2023-05-20T07:50:12.727Z,29.84
2023-05-20T07:51:18.040Z,29.71
2023-05-20T07:52:22.934Z,29.70
2023-05-20T07:53:27.551Z,29.86
2023-05-20T07:54:31.493Z,29.71
2023-05-20T07:55:36.920Z,29.54
2023-05-20T07:56:41.833Z,28.97
2023-05-20T07:57:46.790Z,29.38
2023-05-20T07:58:54.799Z,29.76
2023-05-20T07:59:59.133Z,29.82
2023-05-20T08:01:04.312Z,30.30
2023-05-20T08:02:09.421Z,29.57
2023-05-20T08:03:14.866Z,29.05
2023-05-20T08:04:20.710Z,28.84
2023-05-20T08:05:24.391Z,28.89
2023-05-20T08:06:29.774Z,28.66
2023-05-20T08:07:35.054Z,28.52
2023-05-20T08:08:41.689Z,28.63
2023-05-20T08:09:48.237Z,28.42
2023-05-20T08:10:56.658Z,28.56
2023-05-20T08:12:01.306Z,28.33
2023-05-20T08:13:06.050Z,28.21
2023-05-20T08:14:09.885Z,28.14
2023-05-20T08:15:15.198Z,28.46
2023-05-20T08:16:18.881Z,28.58
2023-05-20T08:17:23.958Z,28.59
2023-05-20T08:18:30.348Z,29.02
2023-05-20T08:19:33.255Z,28.74
2023-05-20T08:20:37.272Z,28.81
2023-05-20T08:21:40.354Z,28.76
2023-05-20T08:22:43.823Z,28.16
2023-05-20T08:23:48.628Z,28.09
2023-05-20T08:24:52.543Z,28.20
2023-05-20T08:25:58.554Z,28.45
2023-05-20T08:27:02.050Z,28.86
2023-05-20T08:28:06.297Z,29.07
2023-05-20T08:29:12.737Z,28.87
2023-05-20T08:30:16.855Z,28.61
2023-05-20T08:31:21.766Z,28.50
2023-05-20T08:32:25.142Z,28.56
2023-05-20T08:33:30.224Z,28.39
2023-05-20T08:34:33.496Z,28.30
2023-05-20T08:35:41.349Z,27.90
2023-05-20T08:36:45.258Z,28.13
2023-05-20T08:37:48.806Z,28.15
2023-05-20T08:38:52.650Z,28.11
2023-05-20T08:39:57.076Z,27.86
2023-05-20T08:41:03.721Z,27.61
2023-05-20T08:42:08.509Z,27.01
2023-05-20T08:43:11.998Z,27.10
2023-05-20T08:44:15.900Z,27.39
2023-05-20T08:45:20.738Z,28.08
2023-05-20T08:46:24.380Z,27.91
2023-05-20T08:47:31.250Z,28.22
2023-05-20T08:48:38.061Z,28.30
2023-05-20T08:49:42.951Z,27.87
2023-05-20T08:50:48.594Z,27.45
2023-05-20T08:51:50.971Z,27.50
2023-05-20T08:52:56.608Z,28.07
2023-05-20T08:54:02.496Z,28.29
2023-05-20T08:55:07.922Z,28.00
2023-05-20T08:56:13.143Z,28.13
2023-05-20T08:57:23.672Z,27.76
2023-05-20T08:58:30.134Z,27.40
2023-05-20T08:59:33.465Z,27.37
2023-05-20T09:00:37.713Z,27.75
2023-05-20T09:01:43.196Z,28.56
2023-05-20T09:02:45.737Z,28.26
2023-05-20T09:03:49.575Z,28.21
2023-05-20T09:04:55.922Z,28.16
2023-05-20T09:06:07.674Z,27.43
2023-05-20T09:07:14.207Z,27.76
2023-05-20T09:08:18.553Z,27.97
2023-05-20T09:09:23.086Z,28.31
2023-05-20T09:10:28.062Z,27.83
2023-05-20T09:11:31.567Z,27.66
2023-05-20T09:12:34.913Z,27.35
2023-05-20T09:13:39.960Z,27.20
2023-05-20T09:14:46.134Z,27.70
2023-05-20T09:15:49.561Z,27.93
2023-05-20T09:16:53.274Z,28.07
2023-05-20T09:18:07.726Z,27.76
2023-05-20T09:20:26.395Z,28.03
2023-05-20T09:21:30.258Z,27.56
2023-05-20T09:22:32.720Z,27.18
2023-05-20T09:23:40.034Z,27.12
2023-05-20T09:24:43.581Z,27.49
2023-05-20T09:25:47.827Z,27.15
2023-05-20T09:26:54.455Z,27.09
2023-05-20T09:28:06.022Z,27.53
2023-05-20T09:29:09.598Z,27.31
2023-05-20T09:30:14.776Z,27.15
2023-05-20T09:31:18.099Z,27.29
2023-05-20T09:32:25.392Z,27.62
2023-05-20T09:33:35.200Z,27.31
2023-05-20T09:34:39.178Z,27.58
2023-05-20T09:35:42.571Z,27.42
2023-05-20T09:36:48.787Z,27.56
2023-05-20T09:37:53.965Z,27.44
2023-05-20T09:39:03.711Z,27.39
2023-05-20T09:40:10.100Z,27.23
2023-05-20T09:41:17.878Z,27.49
2023-05-20T09:42:27.417Z,27.50
2023-05-20T09:43:31.336Z,27.58
2023-05-20T09:44:34.025Z,27.66
2023-05-20T09:45:39.520Z,27.52
2023-05-20T09:46:43.303Z,27.51
2023-05-20T09:47:48.097Z,27.38
2023-05-20T09:48:50.736Z,27.25
2023-05-20T09:49:54.870Z,26.74
2023-05-20T09:50:58.689Z,26.84
2023-05-20T09:52:03.236Z,27.01
2023-05-20T09:53:07.368Z,27.23
2023-05-20T09:54:12.753Z,27.09
2023-05-20T09:55:17.409Z,27.43
2023-05-20T09:56:22.086Z,27.43
2023-05-20T09:57:27.122Z,27.65
2023-05-20T09:58:30.535Z,27.24
2023-05-20T09:59:35.442Z,27.06
2023-05-20T10:00:39.222Z,27.15
2023-05-20T10:01:46.125Z,27.20
2023-05-20T10:02:54.437Z,27.72
2023-05-20T10:03:58.844Z,28.04
2023-05-20T10:05:06.502Z,27.91
2023-05-20T10:06:18.467Z,28.05
2023-05-20T10:07:42.319Z,27.54
2023-05-20T10:08:49.189Z,27.26
2023-05-20T10:09:53.633Z,27.35
2023-05-20T10:11:09.010Z,27.04
2023-05-20T10:12:15.492Z,27.06
2023-05-20T10:13:23.681Z,26.88
2023-05-20T10:14:32.243Z,27.17
2023-05-20T10:15:45.975Z,27.15
2023-05-20T10:16:57.488Z,27.52
2023-05-20T10:18:07.013Z,27.63
2023-05-20T10:19:12.364Z,27.52
2023-05-20T10:20:16.137Z,27.51
2023-05-20T10:21:25.712Z,27.47
2023-05-20T10:22:30.337Z,27.45
2023-05-20T10:23:34.298Z,27.84
2023-05-20T10:24:38.691Z,28.11
2023-05-20T10:25:45.710Z,28.30
2023-05-20T10:26:53.784Z,28.10
2023-05-20T10:28:09.621Z,27.52
2023-05-20T10:29:22.131Z,27.60
2023-05-20T10:30:25.606Z,27.33
2023-05-20T10:31:29.123Z,26.97
2023-05-20T10:32:33.126Z,26.78
2023-05-20T10:33:41.655Z,26.83
2023-05-20T10:34:50.671Z,27.14
2023-05-20T10:35:55.142Z,27.21
2023-05-20T10:36:59.689Z,27.59
2023-05-20T10:38:09.917Z,27.14
2023-05-20T10:39:16.374Z,26.88
2023-05-20T10:40:21.416Z,26.84
2023-05-20T10:41:27.186Z,26.44
2023-05-20T10:42:32.155Z,26.29
2023-05-20T10:43:35.665Z,26.07
2023-05-20T10:44:47.210Z,26.28
2023-05-20T10:45:52.062Z,26.47
2023-05-20T10:47:24.379Z,26.46
2023-05-20T10:48:13.151Z,26.11
2023-05-20T10:49:27.593Z,26.66
2023-05-20T10:50:32.225Z,26.51
2023-05-20T10:51:39.657Z,26.36
2023-05-20T10:52:42.910Z,26.17
2023-05-20T10:53:47.829Z,26.00
2023-05-20T10:54:57.708Z,26.11
2023-05-20T10:56:04.162Z,26.09
2023-05-20T10:57:10.177Z,26.42
2023-05-20T10:58:17.726Z,26.49
2023-05-20T10:59:23.398Z,26.47
2023-05-20T11:00:27.321Z,26.69
2023-05-20T11:01:30.248Z,26.43
2023-05-20T11:02:34.026Z,25.97
2023-05-20T11:03:38.122Z,26.01
2023-05-20T11:04:43.398Z,25.90
2023-05-20T11:05:48.445Z,26.03
2023-05-20T11:06:54.515Z,26.09
2023-05-20T11:08:10.672Z,26.25
2023-05-20T11:09:10.788Z,26.36
2023-05-20T11:10:14.740Z,26.10
2023-05-20T11:11:18.360Z,26.22
2023-05-20T11:12:23.172Z,26.38
2023-05-20T11:13:27.327Z,26.49
2023-05-20T11:14:34.540Z,26.32
2023-05-20T11:15:39.715Z,26.36
2023-05-20T11:16:43.465Z,26.31
2023-05-20T11:17:58.748Z,26.29
2023-05-20T11:19:02.794Z,26.06
2023-05-20T11:20:06.837Z,25.75
2023-05-20T11:21:11.175Z,25.79
2023-05-20T11:22:16.978Z,25.95
2023-05-20T11:23:21.362Z,26.08
2023-05-20T11:24:29.292Z,25.89
2023-05-20T11:25:33.399Z,26.21
2023-05-20T11:26:36.590Z,26.59
2023-05-20T11:27:41.864Z,26.67
2023-05-20T11:28:45.479Z,26.53
2023-05-20T11:29:52.806Z,26.20
2023-05-20T11:30:56.710Z,26.31
2023-05-20T11:32:01.379Z,26.48
2023-05-20T11:33:05.242Z,26.35
2023-05-20T11:34:08.689Z,26.30
2023-05-20T11:35:26.043Z,26.69
2023-05-20T11:36:30.903Z,26.39
2023-05-20T11:37:36.972Z,26.20
2023-05-20T11:38:42.389Z,26.36
2023-05-20T11:39:45.928Z,26.23
2023-05-20T11:40:52.952Z,26.26
2023-05-20T11:41:57.013Z,26.08
2023-05-20T11:43:01.873Z,26.51
2023-05-20T11:44:11.889Z,26.43
2023-05-20T11:45:18.923Z,26.62
2023-05-20T11:46:23.575Z,26.57
2023-05-20T11:47:28.381Z,26.35
2023-05-20T11:48:38.857Z,26.38
2023-05-20T11:49:42.963Z,26.53
2023-05-20T11:50:47.483Z,25.99
2023-05-20T11:51:50.375Z,25.93
2023-05-20T11:53:00.981Z,25.75
2023-05-20T11:54:05.101Z,25.80
2023-05-20T11:55:12.061Z,25.73
2023-05-20T11:56:14.524Z,25.81
2023-05-20T11:57:18.136Z,26.00
2023-05-20T11:58:25.147Z,25.69
2023-05-20T11:59:28.812Z,25.80
2023-05-20T12:00:43.069Z,25.62
2023-05-20T12:01:37.760Z,25.65
2023-05-20T12:02:41.674Z,25.85
2023-05-20T12:03:45.430Z,25.79
2023-05-20T12:04:50.077Z,25.97
2023-05-20T12:05:54.778Z,25.96
2023-05-20T12:06:59.071Z,25.96
2023-05-20T12:08:05.771Z,25.55
2023-05-20T12:09:11.868Z,25.52
2023-05-20T12:10:15.540Z,25.57
2023-05-20T12:11:20.917Z,25.72
2023-05-20T12:12:25.815Z,25.78
2023-05-20T12:13:32.613Z,26.02
2023-05-20T12:14:42.631Z,26.10
2023-05-20T12:15:47.224Z,25.89
2023-05-20T12:16:51.193Z,25.91
2023-05-20T12:17:55.193Z,25.40
2023-05-20T12:18:59.376Z,25.57
2023-05-20T12:20:06.633Z,25.55
2023-05-20T12:21:09.929Z,25.79
2023-05-20T12:22:14.701Z,25.38
2023-05-20T12:23:18.883Z,25.63
2023-05-20T12:24:22.523Z,25.41
2023-05-20T12:25:27.626Z,25.48
2023-05-20T12:26:31.936Z,25.55
2023-05-20T12:27:35.313Z,25.59
2023-05-20T12:28:38.938Z,25.64
2023-05-20T12:29:41.966Z,25.57
2023-05-20T12:30:44.802Z,25.84
2023-05-20T12:31:48.221Z,25.93
2023-05-20T12:32:52.039Z,26.16
2023-05-20T12:33:55.729Z,26.04
2023-05-20T12:34:59.233Z,25.63
2023-05-20T12:36:03.157Z,25.71
2023-05-20T12:37:05.825Z,25.93
2023-05-20T12:38:09.040Z,25.65
2023-05-20T12:39:12.107Z,25.64
2023-05-20T12:40:17.176Z,25.64
2023-05-20T12:41:20.785Z,25.70
2023-05-20T12:42:23.141Z,25.70
2023-05-20T12:43:26.230Z,25.46
2023-05-20T12:44:28.782Z,25.59
2023-05-20T12:45:33.286Z,25.61
2023-05-20T12:46:38.861Z,25.29
2023-05-20T12:47:42.777Z,25.29
2023-05-20T12:48:46.159Z,25.64
2023-05-20T12:49:51.348Z,25.40
2023-05-20T12:50:54.956Z,25.64
2023-05-20T12:52:03.518Z,25.63
2023-05-20T12:53:09.679Z,25.71
2023-05-20T12:54:13.070Z,25.93
2023-05-20T12:55:16.793Z,25.93
2023-05-20T12:56:23.948Z,25.97
2023-05-20T12:57:27.869Z,25.86
2023-05-20T12:58:31.425Z,25.42
2023-05-20T12:59:35.848Z,25.29
2023-05-20T13:00:39.278Z,25.54
2023-05-20T13:01:41.839Z,25.62
2023-05-20T13:02:46.200Z,25.36
2023-05-20T13:03:51.841Z,25.10
2023-05-20T13:04:55.554Z,25.09
2023-05-20T13:06:01.807Z,24.95
2023-05-20T13:07:06.134Z,25.05
2023-05-20T13:08:12.107Z,25.06
2023-05-20T13:09:16.778Z,25.45
2023-05-20T13:10:21.105Z,25.26
2023-05-20T13:11:24.661Z,25.48
2023-05-20T13:12:31.480Z,25.43
2023-05-20T13:13:38.414Z,25.50
2023-05-20T13:14:42.444Z,25.65
2023-05-20T13:15:47.309Z,25.40
2023-05-20T13:16:56.881Z,25.13
2023-05-20T13:18:02.319Z,25.20
2023-05-20T13:19:06.120Z,24.99
2023-05-20T13:20:13.383Z,24.89
2023-05-20T13:21:20.296Z,25.11
2023-05-20T13:22:24.640Z,25.45
2023-05-20T13:23:29.078Z,25.40
2023-05-20T13:24:34.555Z,25.26
2023-05-20T13:25:38.737Z,25.15
2023-05-20T13:26:42.080Z,25.21
2023-05-20T13:27:47.163Z,24.98
2023-05-20T13:28:51.414Z,25.31
2023-05-20T13:29:55.111Z,25.49
2023-05-20T13:30:58.804Z,25.49
2023-05-20T13:32:04.707Z,25.54
2023-05-20T13:33:08.285Z,25.40
2023-05-20T13:34:10.785Z,25.28
2023-05-20T13:35:15.056Z,25.21
2023-05-20T13:36:20.955Z,25.28
2023-05-20T13:37:25.168Z,25.29
2023-05-20T13:38:29.213Z,25.35
2023-05-20T13:39:41.000Z,25.29
2023-05-20T13:40:47.340Z,25.18
2023-05-20T13:41:52.639Z,25.17
2023-05-20T13:42:58.451Z,25.19
2023-05-20T13:44:01.724Z,25.12
2023-05-20T13:45:05.752Z,25.32
2023-05-20T13:46:09.221Z,24.93
2023-05-20T13:47:14.192Z,25.01
2023-05-20T13:48:20.436Z,24.96
2023-05-20T13:49:23.061Z,25.13
2023-05-20T13:50:27.803Z,25.51
2023-05-20T13:51:32.788Z,25.47
2023-05-20T13:52:36.271Z,25.18
2023-05-20T13:53:43.505Z,25.25
2023-05-20T13:54:52.083Z,25.15
2023-05-20T13:55:58.488Z,25.10
2023-05-20T13:57:07.135Z,25.29
2023-05-20T13:58:10.985Z,25.32
2023-05-20T13:59:14.554Z,25.36
2023-05-20T14:00:19.607Z,25.45